createdAt,value
2018-05-17T00:00:04.796Z,73.41
2018-05-17T00:02:32.332Z,73.54
2018-05-17T00:04:59.829Z,75.75
2018-05-17T00:07:27.339Z,75.14
2018-05-17T00:09:54.835Z,74.57
2018-05-17T00:12:22.329Z,73.96
2018-05-17T00:14:49.868Z,72.78
2018-05-17T00:17:17.372Z,72.71
2018-05-17T00:19:44.887Z,72.19
2018-05-17T00:22:12.392Z,71.67
2018-05-17T00:24:39.944Z,72.77
2018-05-17T00:27:07.457Z,72.33
2018-05-17T00:29:34.976Z,72.18
2018-05-17T00:32:02.490Z,72.67
2018-05-17T00:34:30.004Z,72.04
2018-05-17T00:36:57.515Z,72.42
2018-05-17T00:39:25.048Z,72.73
2018-05-17T00:41:52.569Z,73.09
2018-05-17T00:44:20.071Z,72.14
2018-05-17T00:46:47.846Z,72.22
2018-05-17T00:49:15.799Z,73.34
2018-05-17T00:51:43.298Z,73.69
2018-05-17T00:54:10.864Z,73.58
2018-05-17T00:56:38.401Z,73.44
2018-05-17T00:59:06.197Z,72.27
2018-05-17T01:01:33.734Z,73.06
2018-05-17T01:04:01.363Z,73.05
2018-05-17T01:06:28.899Z,72.84
2018-05-17T01:08:56.415Z,72.68
2018-05-17T01:11:23.924Z,72.41
2018-05-17T01:13:51.743Z,73.86
2018-05-17T01:16:19.287Z,74.00
2018-05-17T01:18:46.790Z,73.66
2018-05-17T01:21:14.310Z,72.83
2018-05-17T01:23:41.815Z,75.17
2018-05-17T01:26:09.371Z,75.51
2018-05-17T01:28:36.889Z,74.08
2018-05-17T01:31:04.444Z,74.01
2018-05-17T01:33:31.947Z,73.38
2018-05-17T01:35:59.486Z,74.91
2018-05-17T01:38:27.013Z,74.42
2018-05-17T01:40:54.604Z,73.48
2018-05-17T01:43:22.121Z,73.14
2018-05-17T01:45:49.680Z,72.82
2018-05-17T01:48:17.182Z,73.68
2018-05-17T01:50:44.699Z,73.93
2018-05-17T01:53:12.197Z,74.16
2018-05-17T01:55:39.702Z,73.44
2018-05-17T01:58:07.259Z,72.38
2018-05-17T02:00:34.823Z,72.92
2018-05-17T02:03:02.338Z,73.87
2018-05-17T02:05:29.840Z,73.61
2018-05-17T02:07:57.708Z,73.92
2018-05-17T02:10:25.214Z,73.72
2018-05-17T02:12:52.778Z,74.20
2018-05-17T02:15:20.342Z,74.32
2018-05-17T02:17:47.846Z,75.02
2018-05-17T02:20:15.378Z,74.80
2018-05-17T02:22:42.883Z,76.08
2018-05-17T02:25:10.395Z,76.81
2018-05-17T02:27:37.950Z,77.59
2018-05-17T02:30:05.500Z,77.98
2018-05-17T02:32:33.131Z,78.27
2018-05-17T02:35:01.273Z,79.08
2018-05-17T02:37:28.807Z,77.91
2018-05-17T02:39:56.335Z,76.71
2018-05-17T02:42:23.879Z,76.40
2018-05-17T02:44:51.425Z,76.20
2018-05-17T02:47:18.953Z,76.69
2018-05-17T02:49:46.519Z,77.47
2018-05-17T02:52:14.065Z,78.50
2018-05-17T02:54:41.622Z,78.93
2018-05-17T02:57:09.128Z,78.73
2018-05-17T02:59:36.639Z,78.59
2018-05-17T03:02:04.160Z,78.83
2018-05-17T03:04:31.708Z,78.26
2018-05-17T03:06:59.212Z,78.32
2018-05-17T03:09:26.771Z,77.64
2018-05-17T03:11:54.273Z,77.45
2018-05-17T03:14:21.772Z,77.50
2018-05-17T03:16:49.287Z,77.94
2018-05-17T03:19:16.792Z,77.96
2018-05-17T03:21:44.311Z,77.06
2018-05-17T03:24:11.807Z,76.44
2018-05-17T03:26:39.322Z,76.51
2018-05-17T03:29:06.822Z,75.97
2018-05-17T03:31:34.345Z,76.01
2018-05-17T03:34:01.895Z,76.25
2018-05-17T03:36:29.405Z,75.84
2018-05-17T03:38:56.915Z,76.35
2018-05-17T03:41:24.441Z,75.57
2018-05-17T03:43:51.956Z,75.25
2018-05-17T03:46:19.499Z,75.39
2018-05-17T03:48:47.008Z,75.88
2018-05-17T03:51:14.575Z,75.20
2018-05-17T03:53:42.083Z,74.71
2018-05-17T03:56:09.852Z,74.00
2018-05-17T03:58:37.360Z,72.38
2018-05-17T04:01:16.798Z,71.65
2018-05-17T04:06:51.503Z,71.14
2018-05-17T04:09:19.009Z,70.84
2018-05-17T04:11:46.570Z,71.29
2018-05-17T04:14:14.067Z,71.29
2018-05-17T04:16:41.604Z,71.50
2018-05-17T04:19:09.264Z,71.47
2018-05-17T04:21:36.803Z,71.79
2018-05-17T04:24:04.318Z,71.40
2018-05-17T04:26:31.867Z,71.94
2018-05-17T04:28:59.408Z,71.95
2018-05-17T04:31:26.919Z,72.23
2018-05-17T04:33:54.431Z,73.11
2018-05-17T04:36:21.938Z,73.09
2018-05-17T04:38:49.455Z,71.30
2018-05-17T04:41:16.965Z,69.12
2018-05-17T04:43:44.764Z,68.46
2018-05-17T04:46:12.281Z,67.52
2018-05-17T04:48:39.839Z,68.17
2018-05-17T04:51:07.367Z,69.27
2018-05-17T04:53:34.902Z,68.54
2018-05-17T04:56:02.458Z,67.64
2018-05-17T04:58:29.971Z,65.93
2018-05-17T05:00:57.491Z,63.57
2018-05-17T05:03:25.140Z,65.07
2018-05-17T05:05:52.754Z,65.76
2018-05-17T05:08:20.280Z,63.98
2018-05-17T05:10:47.818Z,62.70
2018-05-17T05:13:15.323Z,61.90
2018-05-17T05:15:42.835Z,59.30
2018-05-17T05:18:10.332Z,60.13
2018-05-17T05:20:38.142Z,61.82
2018-05-17T05:23:05.693Z,63.03
2018-05-17T05:25:33.294Z,64.13
2018-05-17T05:28:01.146Z,63.33
2018-05-17T05:30:28.737Z,61.64
2018-05-17T05:32:56.274Z,60.17
2018-05-17T05:35:23.813Z,60.98
2018-05-17T05:37:51.359Z,61.42
2018-05-17T05:40:18.868Z,62.04
2018-05-17T05:42:47.407Z,56.80
2018-05-17T05:45:14.939Z,54.71
2018-05-17T05:47:42.454Z,52.55
2018-05-17T05:50:09.966Z,50.44
2018-05-17T05:52:37.791Z,49.91
2018-05-17T05:55:05.391Z,49.00
2018-05-17T05:57:32.946Z,46.83
2018-05-17T06:00:00.495Z,46.24
2018-05-17T06:02:28.106Z,45.83
2018-05-17T06:04:55.589Z,43.86
2018-05-17T06:07:23.101Z,43.20
2018-05-17T06:09:50.643Z,42.06
2018-05-17T06:12:18.479Z,44.33
2018-05-17T06:14:45.991Z,43.26
2018-05-17T06:17:13.527Z,42.68
2018-05-17T06:19:41.687Z,42.09
2018-05-17T06:22:09.209Z,39.14
2018-05-17T06:24:36.738Z,39.22
2018-05-17T06:27:04.294Z,37.48
2018-05-17T06:29:31.849Z,38.53
2018-05-17T06:31:59.719Z,36.99
2018-05-17T06:34:27.452Z,33.77
2018-05-17T06:36:54.969Z,34.19
2018-05-17T06:39:22.532Z,32.03
2018-05-17T06:41:50.059Z,32.62
2018-05-17T06:44:18.536Z,31.31
2018-05-17T06:46:46.054Z,32.19
2018-05-17T06:49:13.564Z,32.65
2018-05-17T06:51:41.075Z,33.88
2018-05-17T06:54:08.588Z,33.52
2018-05-17T06:56:36.098Z,31.64
2018-05-17T06:59:03.628Z,30.67
2018-05-17T07:01:31.147Z,29.38
2018-05-17T07:03:58.662Z,28.15
2018-05-17T07:06:26.540Z,28.99
2018-05-17T07:08:54.075Z,28.52
2018-05-17T07:11:21.629Z,30.61
2018-05-17T07:13:49.168Z,30.80
2018-05-17T07:16:16.679Z,29.62
2018-05-17T07:18:44.469Z,30.08
2018-05-17T07:21:11.756Z,31.69
2018-05-17T07:23:39.264Z,28.22
2018-05-17T07:26:06.776Z,28.44
2018-05-17T07:28:34.331Z,29.30
2018-05-17T07:31:01.852Z,30.48
2018-05-17T07:33:29.411Z,30.18
2018-05-17T07:35:57.010Z,29.49
2018-05-17T07:38:24.491Z,29.26
2018-05-17T07:40:52.032Z,27.79
2018-05-17T07:43:19.532Z,27.18
2018-05-17T07:45:47.380Z,27.08
2018-05-17T07:48:14.908Z,29.55
2018-05-17T07:50:42.647Z,29.04
2018-05-17T07:53:10.163Z,28.34
2018-05-17T07:55:37.714Z,30.07
2018-05-17T07:58:05.227Z,29.62
2018-05-17T08:00:32.738Z,29.32
2018-05-17T08:03:00.251Z,28.15
2018-05-17T08:05:27.791Z,26.25
2018-05-17T08:07:55.299Z,26.45
2018-05-17T08:10:22.807Z,27.18
2018-05-17T08:12:50.339Z,26.18
2018-05-17T08:15:17.885Z,27.32
2018-05-17T08:17:45.423Z,27.58
2018-05-17T08:20:12.924Z,26.05
2018-05-17T08:22:40.428Z,25.77
2018-05-17T08:25:08.251Z,26.47
2018-05-17T08:27:35.794Z,25.46
2018-05-17T08:30:05.105Z,25.92
2018-05-17T08:32:32.623Z,24.83
2018-05-17T08:35:00.123Z,25.31
2018-05-17T08:37:27.626Z,27.45
2018-05-17T08:39:55.149Z,27.19
2018-05-17T08:42:22.769Z,25.97
2018-05-17T08:44:50.304Z,25.12
2018-05-17T08:47:17.818Z,25.74
2018-05-17T08:49:45.488Z,26.98
2018-05-17T08:52:13.042Z,25.44
2018-05-17T08:54:40.555Z,26.15
2018-05-17T08:57:08.112Z,26.04
2018-05-17T08:59:35.686Z,25.97
2018-05-17T09:02:03.169Z,25.37
2018-05-17T09:04:30.688Z,26.13
2018-05-17T09:06:58.504Z,24.81
2018-05-17T09:09:26.022Z,23.97
2018-05-17T09:11:53.542Z,25.96
2018-05-17T09:14:21.070Z,28.32
2018-05-17T09:16:48.605Z,27.24
2018-05-17T09:19:16.109Z,26.40
2018-05-17T09:21:43.617Z,27.12
2018-05-17T09:24:11.132Z,27.04
2018-05-17T09:26:38.638Z,27.37
2018-05-17T09:29:06.179Z,28.11
2018-05-17T09:31:33.699Z,26.58
2018-05-17T09:34:01.255Z,25.78
2018-05-17T09:36:28.784Z,26.26
2018-05-17T09:38:56.334Z,25.93
2018-05-17T09:41:23.959Z,25.47
2018-05-17T09:43:51.393Z,29.63
2018-05-17T09:46:18.896Z,30.72
2018-05-17T09:48:46.437Z,29.16
2018-05-17T09:51:14.034Z,26.09
2018-05-17T09:53:41.534Z,26.08
2018-05-17T09:56:09.047Z,26.81
2018-05-17T09:58:36.777Z,25.39
2018-05-17T10:01:04.287Z,24.49
2018-05-17T10:03:31.809Z,25.67
2018-05-17T10:05:59.327Z,24.52
2018-05-17T10:08:26.842Z,24.58
2018-05-17T10:10:54.371Z,27.16
2018-05-17T10:13:21.883Z,26.01
2018-05-17T10:15:49.431Z,26.25
2018-05-17T10:18:16.937Z,25.95
2018-05-17T10:20:44.482Z,23.84
2018-05-17T10:23:12.033Z,23.09
2018-05-17T10:25:39.565Z,24.42
2018-05-17T10:28:07.069Z,24.56
2018-05-17T10:30:34.615Z,22.51
2018-05-17T10:33:02.133Z,23.18
2018-05-17T10:35:29.659Z,24.77
2018-05-17T10:37:57.174Z,28.26
2018-05-17T10:40:24.684Z,26.65
2018-05-17T10:42:52.182Z,26.77
2018-05-17T10:45:19.724Z,26.67
2018-05-17T10:47:47.254Z,25.32
2018-05-17T10:50:14.797Z,24.92
2018-05-17T10:52:42.307Z,23.17
2018-05-17T10:55:09.821Z,23.11
2018-05-17T10:57:37.323Z,21.93
2018-05-17T11:00:06.580Z,21.86
2018-05-17T11:02:34.140Z,21.98
2018-05-17T11:05:01.724Z,22.47
2018-05-17T11:07:29.232Z,21.41
2018-05-17T11:09:56.748Z,21.97
2018-05-17T11:12:24.258Z,22.75
2018-05-17T11:14:51.767Z,24.97
2018-05-17T11:17:19.262Z,23.52
2018-05-17T11:19:46.772Z,22.62
2018-05-17T11:22:14.288Z,26.61
2018-05-17T11:24:41.795Z,26.15
2018-05-17T11:27:09.314Z,25.91
2018-05-17T11:29:36.822Z,26.47
2018-05-17T11:32:04.326Z,25.15
2018-05-17T11:34:31.847Z,26.39
2018-05-17T11:36:59.345Z,24.51
2018-05-17T11:39:26.847Z,24.92
2018-05-17T11:41:54.358Z,25.37
2018-05-17T11:44:21.879Z,25.44
2018-05-17T11:46:49.383Z,25.73
2018-05-17T11:49:16.897Z,24.61
2018-05-17T11:51:44.422Z,26.28
2018-05-17T11:54:11.932Z,26.44
2018-05-17T11:56:39.468Z,25.04
2018-05-17T11:59:06.971Z,25.28
2018-05-17T12:01:34.502Z,26.30
2018-05-17T12:04:02.049Z,24.50
2018-05-17T12:06:29.589Z,23.54
2018-05-17T12:08:57.128Z,26.41
2018-05-17T12:11:24.659Z,25.82
2018-05-17T12:13:52.167Z,27.32
2018-05-17T12:16:19.857Z,27.47
2018-05-17T12:18:47.363Z,26.81
2018-05-17T12:21:14.871Z,26.26
2018-05-17T12:23:42.408Z,27.43
2018-05-17T12:26:10.219Z,27.04
2018-05-17T12:28:37.728Z,27.22
2018-05-17T12:31:05.249Z,26.68
2018-05-17T12:33:32.785Z,27.48
2018-05-17T12:36:00.719Z,27.69
2018-05-17T12:38:28.226Z,28.48
2018-05-17T12:40:55.732Z,27.56
2018-05-17T12:43:23.255Z,27.78
2018-05-17T12:45:50.765Z,29.52
2018-05-17T12:48:18.271Z,29.86
2018-05-17T12:50:45.876Z,30.88
2018-05-17T12:53:13.300Z,31.02
2018-05-17T12:55:40.790Z,29.82
2018-05-17T12:58:08.289Z,29.26
2018-05-17T13:00:35.799Z,29.13
2018-05-17T13:03:03.327Z,29.46
2018-05-17T13:05:30.832Z,30.17
2018-05-17T13:07:58.339Z,30.83
2018-05-17T13:10:25.846Z,29.73
2018-05-17T13:12:53.383Z,27.96
2018-05-17T13:15:20.871Z,27.40
2018-05-17T13:17:48.453Z,26.77
2018-05-17T13:20:15.961Z,26.04
2018-05-17T13:22:43.525Z,28.60
2018-05-17T13:25:11.143Z,27.14
2018-05-17T13:27:38.728Z,29.52
2018-05-17T13:30:06.286Z,28.26
2018-05-17T13:32:33.807Z,24.10
2018-05-17T13:35:01.319Z,24.09
2018-05-17T13:37:29.091Z,23.62
2018-05-17T13:39:56.681Z,24.05
2018-05-17T13:42:24.184Z,28.07
2018-05-17T13:44:52.448Z,30.19
2018-05-17T13:47:19.984Z,30.39
2018-05-17T13:49:47.492Z,30.61
2018-05-17T13:52:15.055Z,30.71
2018-05-17T13:54:42.551Z,30.17
2018-05-17T13:57:10.061Z,30.18
2018-05-17T13:59:37.596Z,30.63
2018-05-17T14:02:05.120Z,30.24
2018-05-17T14:04:32.622Z,30.78
2018-05-17T14:07:00.173Z,30.53
2018-05-17T14:09:27.697Z,30.66
2018-05-17T14:11:55.226Z,30.64
2018-05-17T14:14:23.027Z,30.60
2018-05-17T14:16:50.539Z,31.18
2018-05-17T14:19:18.090Z,30.78
2018-05-17T14:21:45.607Z,31.39
2018-05-17T14:24:13.113Z,31.15
2018-05-17T14:26:40.632Z,30.90
2018-05-17T14:29:09.131Z,30.52
2018-05-17T14:31:36.935Z,30.13
2018-05-17T14:34:04.466Z,29.82
2018-05-17T14:36:32.041Z,29.44
2018-05-17T14:38:59.558Z,29.38
2018-05-17T14:41:27.067Z,29.84
2018-05-17T14:43:55.345Z,29.55
2018-05-17T14:46:22.889Z,29.56
2018-05-17T14:48:50.406Z,29.62
2018-05-17T14:51:17.891Z,29.13
2018-05-17T14:53:45.382Z,28.71
2018-05-17T14:56:12.884Z,28.64
2018-05-17T14:58:40.420Z,29.08
2018-05-17T15:01:07.928Z,28.71
2018-05-17T15:03:36.293Z,28.58
2018-05-17T15:06:03.837Z,28.83
2018-05-17T15:08:31.643Z,29.39
2018-05-17T15:10:59.344Z,29.44
2018-05-17T15:13:26.593Z,29.50
2018-05-17T15:15:54.582Z,29.14
2018-05-17T15:18:22.839Z,28.98
2018-05-17T15:20:50.622Z,28.45
2018-05-17T15:23:18.123Z,28.23
2018-05-17T15:25:45.629Z,28.46
2018-05-17T15:28:13.357Z,28.06
2018-05-17T15:30:40.867Z,29.48
2018-05-17T15:33:08.374Z,28.96
2018-05-17T15:35:35.951Z,28.83
2018-05-17T15:38:03.460Z,28.95
2018-05-17T15:40:30.979Z,28.92
2018-05-17T15:42:58.519Z,29.24
2018-05-17T15:45:26.025Z,29.27
2018-05-17T15:47:53.800Z,29.17
2018-05-17T15:50:21.325Z,28.94
2018-05-17T15:52:49.290Z,28.88
2018-05-17T15:55:16.854Z,28.67
2018-05-17T15:57:44.368Z,29.02
2018-05-17T16:00:12.770Z,29.55
2018-05-17T16:02:40.274Z,28.96
2018-05-17T16:05:07.853Z,29.23
2018-05-17T16:07:35.737Z,29.25
2018-05-17T16:10:03.257Z,29.28
2018-05-17T16:12:30.758Z,29.20
2018-05-17T16:14:58.636Z,29.17
2018-05-17T16:17:26.121Z,29.71
2018-05-17T16:19:53.635Z,29.86
2018-05-17T16:22:21.197Z,29.66
2018-05-17T16:24:48.757Z,29.52
2018-05-17T16:27:16.289Z,29.50
2018-05-17T16:29:43.853Z,29.58
2018-05-17T16:32:11.995Z,29.81
2018-05-17T16:34:39.664Z,29.83
2018-05-17T16:37:07.162Z,29.91
2018-05-17T16:39:34.879Z,29.76
2018-05-17T16:42:02.417Z,29.96
2018-05-17T16:44:29.928Z,30.21
2018-05-17T16:46:58.191Z,30.32
2018-05-17T16:49:25.682Z,29.98
2018-05-17T16:51:53.193Z,30.34
2018-05-17T16:54:21.012Z,30.39
2018-05-17T16:56:48.451Z,30.56
2018-05-17T16:59:16.196Z,30.74
2018-05-17T17:01:43.719Z,30.93
2018-05-17T17:04:11.275Z,31.18
2018-05-17T17:06:38.819Z,31.34
2018-05-17T17:09:07.133Z,31.53
2018-05-17T17:11:34.678Z,31.76
2018-05-17T17:14:02.353Z,31.71
2018-05-17T17:16:31.696Z,32.36
2018-05-17T17:18:59.381Z,32.63
2018-05-17T17:21:27.158Z,33.36
2018-05-17T17:23:54.792Z,33.57
2018-05-17T17:26:22.435Z,33.39
2018-05-17T17:28:50.054Z,33.38
2018-05-17T17:31:17.613Z,33.32
2018-05-17T17:33:45.192Z,33.30
2018-05-17T17:36:13.422Z,34.90
2018-05-17T17:38:41.000Z,39.44
2018-05-17T17:41:08.536Z,44.34
2018-05-17T17:43:36.168Z,46.45
2018-05-17T17:46:03.744Z,47.98
2018-05-17T17:48:31.437Z,49.12
2018-05-17T17:50:59.035Z,50.49
2018-05-17T17:53:26.539Z,51.40
2018-05-17T17:55:54.083Z,52.04
2018-05-17T17:58:21.718Z,52.14
2018-05-17T18:00:49.197Z,52.98
2018-05-17T18:03:16.763Z,53.58
2018-05-17T18:05:44.639Z,53.78
2018-05-17T18:08:12.139Z,54.59
2018-05-17T18:10:39.942Z,54.31
2018-05-17T18:13:07.472Z,56.19
2018-05-17T18:15:34.970Z,55.81
2018-05-17T18:18:02.699Z,55.59
2018-05-17T18:20:30.343Z,55.63
2018-05-17T18:22:57.828Z,55.33
2018-05-17T18:25:25.350Z,54.85
2018-05-17T18:27:52.873Z,55.25
2018-05-17T18:30:20.399Z,54.92
2018-05-17T18:32:47.911Z,54.72
2018-05-17T18:35:15.674Z,55.66
2018-05-17T18:37:44.064Z,55.48
2018-05-17T18:40:11.856Z,55.50
2018-05-17T18:42:39.355Z,55.67
2018-05-17T18:45:06.867Z,55.82
2018-05-17T18:47:34.366Z,56.07
2018-05-17T18:50:02.333Z,56.35
2018-05-17T18:52:30.834Z,56.65
2018-05-17T18:54:58.340Z,56.50
2018-05-17T18:57:25.848Z,56.63
2018-05-17T18:59:53.409Z,56.81
2018-05-17T19:02:21.027Z,56.49
2018-05-17T19:04:48.463Z,56.28
2018-05-17T19:07:16.242Z,56.25
2018-05-17T19:09:43.784Z,56.43
2018-05-17T19:12:11.297Z,56.29
2018-05-17T19:14:38.856Z,56.60
2018-05-17T19:17:06.359Z,56.74
2018-05-17T19:19:33.911Z,56.73
2018-05-17T19:22:02.346Z,57.35
2018-05-17T19:24:29.867Z,57.60
2018-05-17T19:26:57.678Z,57.53
2018-05-17T19:29:25.175Z,57.34
2018-05-17T19:31:53.012Z,57.34
2018-05-17T19:34:20.675Z,57.47
2018-05-17T19:36:48.232Z,57.96
2018-05-17T19:39:15.727Z,57.58
2018-05-17T19:41:43.316Z,57.96
2018-05-17T19:44:11.047Z,58.37
2018-05-17T19:46:38.589Z,58.80
2018-05-17T19:49:06.143Z,59.33
2018-05-17T19:51:33.647Z,59.31
2018-05-17T19:54:01.213Z,59.53
2018-05-17T19:56:28.718Z,59.43
2018-05-17T19:58:56.212Z,59.82
2018-05-17T20:01:23.715Z,59.29
2018-05-17T20:03:51.208Z,59.78
2018-05-17T20:06:18.721Z,59.60
2018-05-17T20:08:46.256Z,59.29
2018-05-17T20:11:13.840Z,59.32
2018-05-17T20:13:41.287Z,59.83
2018-05-17T20:16:08.826Z,60.31
2018-05-17T20:18:37.275Z,60.51
2018-05-17T20:21:04.762Z,60.50
2018-05-17T20:23:32.295Z,60.71
2018-05-17T20:26:00.618Z,60.60
2018-05-17T20:28:28.134Z,60.54
2018-05-17T20:30:55.660Z,60.87
2018-05-17T20:33:23.170Z,60.71
2018-05-17T20:35:50.672Z,60.54
2018-05-17T20:38:18.188Z,60.16
2018-05-17T20:40:45.731Z,59.83
2018-05-17T20:43:13.232Z,60.10
2018-05-17T20:45:40.771Z,60.20
2018-05-17T20:48:08.282Z,60.18
2018-05-17T20:50:35.785Z,60.37
2018-05-17T20:53:03.295Z,60.44
2018-05-17T20:55:30.840Z,60.50
2018-05-17T20:57:58.391Z,60.69
2018-05-17T21:00:25.908Z,60.66
2018-05-17T21:02:53.916Z,60.82
2018-05-17T21:05:21.478Z,61.18
2018-05-17T21:07:49.039Z,61.13
2018-05-17T21:10:16.555Z,61.00
2018-05-17T21:12:44.140Z,61.17
2018-05-17T21:15:11.576Z,61.51
2018-05-17T21:17:39.085Z,61.64
2018-05-17T21:20:06.599Z,61.67
2018-05-17T21:22:34.107Z,61.19
2018-05-17T21:25:01.621Z,61.30
2018-05-17T21:27:29.137Z,61.24
2018-05-17T21:29:56.631Z,61.55
2018-05-17T21:32:24.167Z,61.95
2018-05-17T21:34:51.687Z,61.90
2018-05-17T21:37:19.199Z,62.06
2018-05-17T21:39:46.742Z,62.35
2018-05-17T21:42:14.251Z,62.39
2018-05-17T21:44:41.817Z,62.89
2018-05-17T21:47:09.376Z,63.79
2018-05-17T21:49:36.871Z,63.64
2018-05-17T21:52:04.385Z,63.19
2018-05-17T21:54:31.891Z,63.13
2018-05-17T21:57:00.300Z,63.22
2018-05-17T21:59:27.826Z,63.36
2018-05-17T22:01:56.140Z,62.84
2018-05-17T22:04:24.162Z,62.61
2018-05-17T22:06:51.674Z,62.63
2018-05-17T22:09:19.195Z,62.97
2018-05-17T22:11:46.719Z,62.82
2018-05-17T22:14:14.247Z,62.94
2018-05-17T22:16:41.751Z,63.42
2018-05-17T22:19:09.264Z,63.40
2018-05-17T22:21:36.785Z,64.06
2018-05-17T22:24:04.315Z,63.93
2018-05-17T22:26:31.942Z,64.00
2018-05-17T22:28:59.444Z,63.38
2018-05-17T22:31:26.942Z,63.87
2018-05-17T22:33:54.459Z,63.94
2018-05-17T22:36:21.987Z,63.66
2018-05-17T22:38:49.507Z,63.87
2018-05-17T22:41:17.015Z,63.85
2018-05-17T22:43:44.526Z,63.68
2018-05-17T22:46:12.051Z,64.05
2018-05-17T22:48:39.574Z,63.66
2018-05-17T22:51:07.130Z,63.53
2018-05-17T22:53:34.631Z,64.13
2018-05-17T22:56:02.439Z,65.06
2018-05-17T22:58:33.771Z,66.72
2018-05-17T23:01:01.280Z,68.04
2018-05-17T23:03:28.797Z,68.11
2018-05-17T23:05:56.676Z,68.10
2018-05-17T23:08:24.187Z,68.11
2018-05-17T23:10:51.690Z,68.48
2018-05-17T23:13:19.248Z,68.65
2018-05-17T23:15:46.750Z,69.41
2018-05-17T23:18:14.255Z,69.50
2018-05-17T23:20:41.755Z,69.30
2018-05-17T23:23:09.258Z,69.21
2018-05-17T23:25:36.789Z,69.51
2018-05-17T23:28:04.299Z,69.22
2018-05-17T23:30:32.140Z,69.43
2018-05-17T23:32:59.667Z,69.55
2018-05-17T23:35:27.170Z,69.96
2018-05-17T23:37:54.671Z,70.23
2018-05-17T23:40:34.031Z,69.86
2018-05-17T23:43:01.529Z,69.58
2018-05-17T23:45:29.035Z,69.22
2018-05-17T23:47:56.548Z,69.17
2018-05-17T23:50:24.394Z,69.24
2018-05-17T23:52:51.890Z,69.10
2018-05-17T23:55:19.398Z,69.27
2018-05-17T23:57:46.917Z,70.29
